createdAt,value
2017-11-12T00:02:22.203Z,82.80
2017-11-12T00:04:48.489Z,88.00
2017-11-12T00:07:14.740Z,77.33
2017-11-12T00:09:40.972Z,90.37
2017-11-12T00:12:07.237Z,86.93
2017-11-12T00:14:33.468Z,85.47
2017-11-12T00:17:00.822Z,76.37
2017-11-12T00:19:27.095Z,67.47
2017-11-12T00:21:53.334Z,73.90
2017-11-12T00:24:19.568Z,76.67
2017-11-12T00:26:45.832Z,75.93
2017-11-12T00:29:12.038Z,76.63
2017-11-12T00:31:38.277Z,81.90
2017-11-12T00:34:04.551Z,73.93
2017-11-12T00:36:30.812Z,103.17
2017-11-12T00:38:57.035Z,69.77
2017-11-12T00:41:23.422Z,69.50
2017-11-12T00:43:49.676Z,72.17
2017-11-12T00:46:15.941Z,75.63
2017-11-12T00:48:42.271Z,61.33
2017-11-12T00:51:08.623Z,62.40
2017-11-12T00:53:34.850Z,67.80
2017-11-12T00:56:01.136Z,60.43
2017-11-12T00:58:27.382Z,58.70
2017-11-12T01:00:53.631Z,72.03
2017-11-12T01:03:19.921Z,69.73
2017-11-12T01:05:46.158Z,69.50
2017-11-12T01:08:12.404Z,65.10
2017-11-12T01:10:38.723Z,82.97
2017-11-12T01:13:04.958Z,67.40
2017-11-12T01:15:31.205Z,61.13
2017-11-12T01:17:57.479Z,64.20
2017-11-12T01:20:23.709Z,71.63
2017-11-12T01:22:49.969Z,63.57
2017-11-12T01:25:16.239Z,65.53
2017-11-12T01:27:42.534Z,64.67
2017-11-12T01:30:08.775Z,98.87
2017-11-12T01:32:35.173Z,66.80
2017-11-12T01:35:01.407Z,64.50
2017-11-12T01:37:27.663Z,66.63
2017-11-12T01:39:53.907Z,60.00
2017-11-12T01:42:20.133Z,63.87
2017-11-12T01:44:46.359Z,72.47
2017-11-12T01:47:12.615Z,62.33
2017-11-12T01:49:38.867Z,59.67
2017-11-12T01:52:05.107Z,68.00
2017-11-12T01:54:31.379Z,65.00
2017-11-12T01:56:57.638Z,55.17
2017-11-12T01:59:23.856Z,55.17
2017-11-12T02:01:50.147Z,67.03
2017-11-12T02:04:16.394Z,66.77
2017-11-12T02:06:42.649Z,57.00
2017-11-12T02:09:09.047Z,63.83
2017-11-12T02:11:35.285Z,63.20
2017-11-12T02:14:01.517Z,53.73
2017-11-12T02:16:27.855Z,59.27
2017-11-12T02:18:54.105Z,67.83
2017-11-12T02:21:20.346Z,58.70
2017-11-12T02:23:46.643Z,60.43
2017-11-12T02:26:12.895Z,58.20
2017-11-12T02:28:39.153Z,59.77
2017-11-12T02:31:05.429Z,51.90
2017-11-12T02:33:31.674Z,50.97
2017-11-12T02:35:57.930Z,59.30
2017-11-12T02:38:24.216Z,52.27
2017-11-12T02:40:50.457Z,60.87
2017-11-12T02:43:16.700Z,58.60
2017-11-12T02:45:42.978Z,45.53
2017-11-12T02:48:09.223Z,54.10
2017-11-12T02:50:35.460Z,52.87
2017-11-12T02:53:01.901Z,53.90
2017-11-12T02:55:28.156Z,48.23
2017-11-12T02:57:54.397Z,51.07
2017-11-12T03:00:20.658Z,51.93
2017-11-12T03:02:46.886Z,48.67
2017-11-12T03:05:13.150Z,54.77
2017-11-12T03:07:39.452Z,47.60
2017-11-12T03:10:05.689Z,51.30
2017-11-12T03:12:31.927Z,57.33
2017-11-12T03:14:58.202Z,58.13
2017-11-12T03:17:24.448Z,46.37
2017-11-12T03:19:50.689Z,54.23
2017-11-12T03:22:16.995Z,55.03
2017-11-12T03:24:43.252Z,58.60
2017-11-12T03:27:09.508Z,56.93
2017-11-12T03:29:35.781Z,55.03
2017-11-12T03:32:02.019Z,54.53
2017-11-12T03:34:28.259Z,59.70
2017-11-12T03:36:54.548Z,47.80
2017-11-12T03:39:20.895Z,49.73
2017-11-12T03:41:47.145Z,39.00
2017-11-12T03:44:13.468Z,38.50
2017-11-12T03:46:39.720Z,38.53
2017-11-12T03:49:05.958Z,47.03
2017-11-12T03:51:32.248Z,43.40
2017-11-12T03:53:58.483Z,39.60
2017-11-12T03:56:24.720Z,40.23
2017-11-12T03:58:51.015Z,43.00
2017-11-12T04:01:17.265Z,53.27
2017-11-12T04:03:43.547Z,49.30
2017-11-12T04:06:09.843Z,36.90
2017-11-12T04:08:36.104Z,59.90
2017-11-12T04:11:02.362Z,49.07
2017-11-12T04:13:28.648Z,55.73
2017-11-12T04:15:54.914Z,53.13
2017-11-12T04:18:21.180Z,54.30
2017-11-12T04:20:47.468Z,57.40
2017-11-12T04:23:13.729Z,46.73
2017-11-12T04:25:39.987Z,54.43
2017-11-12T04:28:06.280Z,58.57
2017-11-12T04:30:32.515Z,56.60
2017-11-12T04:32:58.758Z,53.37
2017-11-12T04:35:25.034Z,68.17
2017-11-12T04:37:51.289Z,54.87
2017-11-12T04:40:17.520Z,64.87
2017-11-12T04:42:43.809Z,57.50
2017-11-12T04:45:10.045Z,61.53
2017-11-12T04:47:36.274Z,72.03
2017-11-12T04:50:02.585Z,43.80
2017-11-12T04:52:28.842Z,45.87
2017-11-12T04:54:55.082Z,62.17
2017-11-12T04:57:21.366Z,53.50
2017-11-12T04:59:47.606Z,57.77
2017-11-12T05:02:13.853Z,69.87
2017-11-12T05:04:40.142Z,45.83
2017-11-12T05:07:06.389Z,47.73
2017-11-12T05:09:32.641Z,50.33
2017-11-12T05:11:58.913Z,40.80
2017-11-12T05:14:25.162Z,46.37
2017-11-12T05:16:51.391Z,46.57
2017-11-12T05:19:17.681Z,46.97
2017-11-12T05:21:43.933Z,45.13
2017-11-12T05:24:10.174Z,41.83
2017-11-12T05:26:36.449Z,43.73
2017-11-12T05:29:02.709Z,45.60
2017-11-12T05:31:28.948Z,44.00
2017-11-12T05:33:55.251Z,37.67
2017-11-12T05:36:21.510Z,42.93
2017-11-12T05:38:47.767Z,36.40
2017-11-12T05:41:14.055Z,34.77
2017-11-12T05:43:40.312Z,45.80
2017-11-12T05:46:06.550Z,37.83
2017-11-12T05:48:32.843Z,37.70
2017-11-12T05:50:59.085Z,42.90
2017-11-12T05:53:25.320Z,43.00
2017-11-12T05:55:51.610Z,50.77
2017-11-12T05:58:17.849Z,44.53
2017-11-12T06:00:44.085Z,39.83
2017-11-12T06:03:10.372Z,46.63
2017-11-12T06:05:36.630Z,54.20
2017-11-12T06:08:02.880Z,47.23
2017-11-12T06:10:29.164Z,45.23
2017-11-12T06:12:55.401Z,46.27
2017-11-12T06:15:21.644Z,39.67
2017-11-12T06:17:47.916Z,44.50
2017-11-12T06:20:14.149Z,47.13
2017-11-12T06:22:40.404Z,42.67
2017-11-12T06:25:06.656Z,44.87
2017-11-12T06:27:32.893Z,46.50
2017-11-12T06:29:59.110Z,36.73
2017-11-12T06:32:25.390Z,34.10
2017-11-12T06:34:51.624Z,34.30
2017-11-12T06:37:17.864Z,47.40
2017-11-12T06:39:44.142Z,43.50
2017-11-12T06:42:10.486Z,48.90
2017-11-12T06:44:36.717Z,41.10
2017-11-12T06:47:02.989Z,53.77
2017-11-12T06:49:29.207Z,32.00
2017-11-12T06:51:55.450Z,59.47
2017-11-12T06:54:21.727Z,43.57
2017-11-12T06:56:47.955Z,39.77
2017-11-12T06:59:14.178Z,34.17
2017-11-12T07:01:40.442Z,31.80
2017-11-12T07:04:06.670Z,37.63
2017-11-12T07:06:32.902Z,40.37
2017-11-12T07:08:59.173Z,42.93
2017-11-12T07:11:25.412Z,30.23
2017-11-12T07:13:51.679Z,35.30
2017-11-12T07:16:17.936Z,29.03
2017-11-12T07:18:44.142Z,29.37
2017-11-12T07:21:10.361Z,29.47
2017-11-12T07:23:36.615Z,27.20
2017-11-12T07:26:02.844Z,26.20
2017-11-12T07:28:29.056Z,26.60
2017-11-12T07:30:55.326Z,33.97
2017-11-12T07:33:21.556Z,28.40
2017-11-12T07:35:47.785Z,26.20
2017-11-12T07:38:14.057Z,34.33
2017-11-12T07:40:40.291Z,43.57
2017-11-12T07:43:06.518Z,33.10
2017-11-12T07:45:32.775Z,25.40
2017-11-12T07:47:58.982Z,28.20
2017-11-12T07:50:25.195Z,32.73
2017-11-12T07:52:51.472Z,22.13
2017-11-12T07:55:17.695Z,30.30
2017-11-12T07:57:43.897Z,36.53
2017-11-12T08:00:10.163Z,27.70
2017-11-12T08:02:36.398Z,34.77
2017-11-12T08:05:02.632Z,35.63
2017-11-12T08:07:28.953Z,32.80
2017-11-12T08:09:55.197Z,32.00
2017-11-12T08:12:21.418Z,30.97
2017-11-12T08:14:47.712Z,31.20
2017-11-12T08:17:13.949Z,43.07
2017-11-12T08:19:40.204Z,54.23
2017-11-12T08:22:06.467Z,42.30
2017-11-12T08:24:32.683Z,41.93
2017-11-12T08:26:58.918Z,45.10
2017-11-12T08:29:25.209Z,34.37
2017-11-12T08:31:51.410Z,36.30
2017-11-12T08:34:17.632Z,40.63
2017-11-12T08:36:43.919Z,40.13
2017-11-12T08:39:10.149Z,53.60
2017-11-12T08:41:36.385Z,63.80
2017-11-12T08:44:02.679Z,40.07
2017-11-12T08:46:28.907Z,51.90
2017-11-12T08:48:55.149Z,47.37
2017-11-12T08:51:21.415Z,42.90
2017-11-12T08:53:47.636Z,43.13
2017-11-12T08:56:13.973Z,37.50
2017-11-12T08:58:40.249Z,41.87
2017-11-12T09:01:06.482Z,38.70
2017-11-12T09:03:32.723Z,51.37
2017-11-12T09:05:58.977Z,38.73
2017-11-12T09:08:25.320Z,28.00
2017-11-12T09:10:51.545Z,46.83
2017-11-12T09:13:17.821Z,36.40
2017-11-12T09:15:44.055Z,29.60
2017-11-12T09:18:10.271Z,35.13
2017-11-12T09:20:36.539Z,37.30
2017-11-12T09:23:02.765Z,18.07
2017-11-12T09:25:29.031Z,22.80
2017-11-12T09:27:55.300Z,38.60
2017-11-12T09:30:21.522Z,28.23
2017-11-12T09:32:47.758Z,61.37
2017-11-12T09:35:14.032Z,42.13
2017-11-12T09:37:40.255Z,25.33
2017-11-12T09:40:06.488Z,23.23
2017-11-12T09:42:32.767Z,17.27
2017-11-12T09:44:58.991Z,18.07
2017-11-12T09:47:25.272Z,13.20
2017-11-12T09:49:51.562Z,9.97
2017-11-12T09:52:17.787Z,10.27
2017-11-12T09:54:44.255Z,11.47
2017-11-12T09:57:10.526Z,4.63
2017-11-12T09:59:37.148Z,5.50
2017-11-12T10:02:03.601Z,2.77
2017-11-12T10:04:30.075Z,2.80
2017-11-12T10:06:56.307Z,2.70
2017-11-12T10:09:22.525Z,2.10
2017-11-12T10:11:48.783Z,3.53
2017-11-12T10:14:15.003Z,12.90
2017-11-12T10:16:41.363Z,3.80
2017-11-12T10:19:07.637Z,7.73
2017-11-12T10:21:33.856Z,3.20
2017-11-12T10:24:00.315Z,2.73
2017-11-12T10:26:26.758Z,2.17
2017-11-12T10:28:53.199Z,2.50
2017-11-12T10:31:19.409Z,4.30
2017-11-12T10:33:45.813Z,3.70
2017-11-12T10:36:12.240Z,7.60
2017-11-12T10:38:38.842Z,9.17
2017-11-12T10:41:05.543Z,3.33
2017-11-12T10:43:32.151Z,2.93
2017-11-12T10:45:58.785Z,2.10
2017-11-12T10:48:25.287Z,3.57
2017-11-12T10:50:51.645Z,2.30
2017-11-12T10:53:18.189Z,3.70
2017-11-12T10:55:44.615Z,2.60
2017-11-12T10:58:11.155Z,2.60
2017-11-12T11:00:37.589Z,7.00
2017-11-12T11:03:04.114Z,4.33
2017-11-12T11:05:30.534Z,4.97
2017-11-12T11:07:56.977Z,4.50
2017-11-12T11:10:23.631Z,4.07
2017-11-12T11:12:50.268Z,6.30
2017-11-12T11:15:16.777Z,4.97
2017-11-12T11:17:43.196Z,7.30
2017-11-12T11:20:09.607Z,5.60
2017-11-12T11:22:35.888Z,6.43
2017-11-12T11:25:02.440Z,6.47
2017-11-12T11:27:29.039Z,5.73
2017-11-12T11:29:55.486Z,4.20
2017-11-12T11:32:22.148Z,8.40
2017-11-12T11:34:48.643Z,3.83
2017-11-12T11:37:15.082Z,13.27
2017-11-12T11:39:41.749Z,12.97
2017-11-12T11:42:08.190Z,8.00
2017-11-12T11:44:34.403Z,17.13
2017-11-12T11:47:00.904Z,4.00
2017-11-12T11:49:27.275Z,5.30
2017-11-12T11:51:53.560Z,5.53
2017-11-12T11:54:19.946Z,17.70
2017-11-12T11:56:46.583Z,6.03
2017-11-12T11:59:13.015Z,55.17
2017-11-12T12:01:39.493Z,8.13
2017-11-12T12:04:05.947Z,7.10
2017-11-12T12:06:32.372Z,6.60
2017-11-12T12:08:58.832Z,11.70
2017-11-12T12:11:25.250Z,12.50
2017-11-12T12:13:51.766Z,17.20
2017-11-12T12:16:18.458Z,5.93
2017-11-12T12:18:44.892Z,4.60
2017-11-12T12:21:11.532Z,5.70
2017-11-12T12:23:38.160Z,5.50
2017-11-12T12:26:05.012Z,3.53
2017-11-12T12:28:31.433Z,29.07
2017-11-12T12:30:57.933Z,14.30
2017-11-12T12:33:24.390Z,54.53
2017-11-12T12:35:50.796Z,17.70
2017-11-12T12:38:17.336Z,14.40
2017-11-12T12:40:43.614Z,7.97
2017-11-12T12:43:10.224Z,4.00
2017-11-12T12:45:36.742Z,6.13
2017-11-12T12:48:03.187Z,7.23
2017-11-12T12:50:29.701Z,7.30
2017-11-12T12:52:56.395Z,8.40
2017-11-12T12:55:22.831Z,4.97
2017-11-12T12:57:49.308Z,10.80
2017-11-12T13:00:15.845Z,5.23
2017-11-12T13:02:42.289Z,12.07
2017-11-12T13:05:08.730Z,5.47
2017-11-12T13:07:35.370Z,6.87
2017-11-12T13:10:01.626Z,4.30
2017-11-12T13:12:28.066Z,7.90
2017-11-12T13:14:54.546Z,5.53
2017-11-12T13:17:20.991Z,9.90
2017-11-12T13:19:47.432Z,8.50
2017-11-12T13:22:13.954Z,6.93
2017-11-12T13:24:40.416Z,5.30
2017-11-12T13:27:06.873Z,7.80
2017-11-12T13:29:33.350Z,4.53
2017-11-12T13:31:59.793Z,11.60
2017-11-12T13:34:26.378Z,5.37
2017-11-12T13:36:52.981Z,6.80
2017-11-12T13:39:19.420Z,7.30
2017-11-12T13:41:45.705Z,6.27
2017-11-12T13:44:12.111Z,8.03
2017-11-12T13:46:38.598Z,9.40
2017-11-12T13:49:05.041Z,6.23
2017-11-12T13:51:31.409Z,9.43
2017-11-12T13:53:58.023Z,12.73
2017-11-12T13:56:24.482Z,12.47
2017-11-12T13:58:51.123Z,8.87
2017-11-12T14:01:17.550Z,8.90
2017-11-12T14:03:44.165Z,12.77
2017-11-12T14:06:10.828Z,16.87
2017-11-12T14:08:37.326Z,11.80
2017-11-12T14:11:03.845Z,12.40
2017-11-12T14:13:30.127Z,11.83
2017-11-12T14:15:56.753Z,13.53
2017-11-12T14:18:23.406Z,17.53
2017-11-12T14:20:50.011Z,10.33
2017-11-12T14:23:16.429Z,12.00
2017-11-12T14:25:42.704Z,7.87
2017-11-12T14:28:08.980Z,11.03
2017-11-12T14:30:35.213Z,9.80
2017-11-12T14:33:01.772Z,7.77
2017-11-12T14:35:28.440Z,11.73
2017-11-12T14:37:55.057Z,11.57
2017-11-12T14:40:21.496Z,8.40
2017-11-12T14:42:48.148Z,22.13
2017-11-12T14:45:14.784Z,25.87
2017-11-12T14:47:41.402Z,15.60
2017-11-12T14:50:08.112Z,39.30
2017-11-12T14:52:34.331Z,14.30
2017-11-12T14:55:00.901Z,11.20
2017-11-12T14:57:27.417Z,11.27
2017-11-12T14:59:53.797Z,14.63
2017-11-12T15:02:20.121Z,14.63
2017-11-12T15:04:46.378Z,22.07
2017-11-12T15:07:12.892Z,43.40
2017-11-12T15:09:39.504Z,34.60
2017-11-12T15:12:05.920Z,41.57
2017-11-12T15:14:32.172Z,42.57
2017-11-12T15:16:58.391Z,61.63
2017-11-12T15:19:24.668Z,29.43
2017-11-12T15:21:50.936Z,51.17
2017-11-12T15:24:17.379Z,47.37
2017-11-12T15:26:43.798Z,75.17
2017-11-12T15:29:10.240Z,69.90
2017-11-12T15:31:36.684Z,47.57
2017-11-12T15:34:03.099Z,39.10
2017-11-12T15:36:29.377Z,22.77
2017-11-12T15:38:55.983Z,57.67
2017-11-12T15:41:22.421Z,53.83
2017-11-12T15:43:48.703Z,68.10
2017-11-12T15:46:14.946Z,81.37
2017-11-12T15:48:41.187Z,61.37
2017-11-12T15:51:07.469Z,84.37
2017-11-12T15:53:33.960Z,192.00
2017-11-12T15:56:00.403Z,228.77
2017-11-12T15:58:27.070Z,69.13
2017-11-12T16:00:53.687Z,80.13
2017-11-12T16:03:20.327Z,125.57
2017-11-12T16:05:46.586Z,150.23
2017-11-12T16:08:13.187Z,91.37
2017-11-12T16:10:39.446Z,88.57
2017-11-12T16:13:06.079Z,67.57
2017-11-12T16:15:32.308Z,86.30
2017-11-12T16:17:58.929Z,118.67
2017-11-12T16:20:25.583Z,135.53
2017-11-12T16:22:51.807Z,105.63
2017-11-12T16:25:18.055Z,66.07
2017-11-12T16:27:44.329Z,71.70
2017-11-12T16:30:10.542Z,47.10
2017-11-12T16:32:36.772Z,58.60
2017-11-12T16:35:03.043Z,67.63
2017-11-12T16:37:29.270Z,67.63
2017-11-12T16:39:55.504Z,73.87
2017-11-12T16:42:21.759Z,60.53
2017-11-12T16:44:48.140Z,51.23
2017-11-12T16:47:14.381Z,73.60
2017-11-12T16:49:40.747Z,67.97
2017-11-12T16:52:07.342Z,56.33
2017-11-12T16:54:33.563Z,64.57
2017-11-12T16:56:59.824Z,55.23
2017-11-12T16:59:26.093Z,54.63
2017-11-12T17:01:52.313Z,52.40
2017-11-12T17:04:18.580Z,46.20
2017-11-12T17:06:44.793Z,50.50
2017-11-12T17:09:11.036Z,70.20
2017-11-12T17:11:37.265Z,86.97
2017-11-12T17:14:03.473Z,49.30
2017-11-12T17:16:29.747Z,43.27
2017-11-12T17:18:55.992Z,56.80
2017-11-12T17:21:22.526Z,50.80
2017-11-12T17:23:49.011Z,47.20
2017-11-12T17:26:15.378Z,62.37
2017-11-12T17:28:41.773Z,53.80
2017-11-12T17:31:08.048Z,85.40
2017-11-12T17:33:34.270Z,58.03
2017-11-12T17:36:00.675Z,83.53
2017-11-12T17:38:27.138Z,189.10
2017-11-12T17:40:53.776Z,180.60
2017-11-12T17:43:20.427Z,185.77
2017-11-12T17:45:47.238Z,77.43
2017-11-12T17:48:13.678Z,75.70
2017-11-12T17:50:40.129Z,58.27
2017-11-12T17:53:06.641Z,65.30
2017-11-12T17:55:33.156Z,76.77
2017-11-12T17:57:59.600Z,95.63
2017-11-12T18:00:26.274Z,98.23
2017-11-12T18:02:52.876Z,209.77
2017-11-12T18:05:19.157Z,219.10
2017-11-12T18:07:45.783Z,198.00
2017-11-12T18:10:11.996Z,202.60
2017-11-12T18:12:38.210Z,143.73
2017-11-12T18:15:04.467Z,136.67
2017-11-12T18:17:30.683Z,127.50
2017-11-12T18:19:56.913Z,142.50
2017-11-12T18:22:23.164Z,118.23
2017-11-12T18:24:49.373Z,96.53
2017-11-12T18:27:15.611Z,110.80
2017-11-12T18:29:42.092Z,111.40
2017-11-12T18:32:08.479Z,130.43
2017-11-12T18:34:34.708Z,117.33
2017-11-12T18:37:00.988Z,119.67
2017-11-12T18:39:27.203Z,108.83
2017-11-12T18:41:53.651Z,111.70
2017-11-12T18:44:19.931Z,105.30
2017-11-12T18:46:46.160Z,97.40
2017-11-12T18:49:12.381Z,69.83
2017-11-12T18:51:38.717Z,125.80
2017-11-12T18:54:05.356Z,123.40
2017-11-12T18:56:31.978Z,99.43
2017-11-12T18:58:58.633Z,103.57
2017-11-12T19:01:25.139Z,93.83
2017-11-12T19:03:51.554Z,125.23
2017-11-12T19:06:17.927Z,93.37
2017-11-12T19:08:44.132Z,62.83
2017-11-12T19:11:10.390Z,90.73
2017-11-12T19:13:37.026Z,48.67
2017-11-12T19:16:03.638Z,47.37
2017-11-12T19:18:29.896Z,78.87
2017-11-12T19:20:56.316Z,102.13
2017-11-12T19:23:22.556Z,99.50
2017-11-12T19:25:48.991Z,87.20
2017-11-12T19:28:15.423Z,96.40
2017-11-12T19:30:41.911Z,97.83
2017-11-12T19:33:08.288Z,96.03
2017-11-12T19:35:34.536Z,106.33
2017-11-12T19:38:00.780Z,115.83
2017-11-12T19:40:27.235Z,100.80
2017-11-12T19:42:53.509Z,89.40
2017-11-12T19:45:19.747Z,136.07
2017-11-12T19:47:46.040Z,109.27
2017-11-12T19:50:12.300Z,109.23
2017-11-12T19:52:38.533Z,110.40
2017-11-12T19:55:04.815Z,88.50
2017-11-12T19:57:31.148Z,105.63
2017-11-12T19:59:57.602Z,108.50
2017-11-12T20:02:23.851Z,109.97
2017-11-12T20:04:50.288Z,115.33
2017-11-12T20:07:16.793Z,87.77
2017-11-12T20:09:43.051Z,59.40
2017-11-12T20:12:09.365Z,87.37
2017-11-12T20:14:35.606Z,46.73
2017-11-12T20:17:01.878Z,43.13
2017-11-12T20:19:28.141Z,90.40
2017-11-12T20:21:54.366Z,81.40
2017-11-12T20:24:20.635Z,86.90
2017-11-12T20:26:46.865Z,108.83
2017-11-12T20:29:13.085Z,86.93
2017-11-12T20:31:39.302Z,95.70
2017-11-12T20:34:05.632Z,83.83
2017-11-12T20:36:31.872Z,71.93
2017-11-12T20:38:58.259Z,79.37
2017-11-12T20:41:24.705Z,90.73
2017-11-12T20:43:50.935Z,103.70
2017-11-12T20:46:17.196Z,79.60
2017-11-12T20:48:43.445Z,77.13
2017-11-12T20:51:09.680Z,85.73
2017-11-12T20:53:35.948Z,89.20
2017-11-12T20:56:02.181Z,64.43
2017-11-12T20:58:28.412Z,64.67
2017-11-12T21:00:54.686Z,65.17
2017-11-12T21:03:20.930Z,56.80
2017-11-12T21:05:47.157Z,74.10
2017-11-12T21:08:13.421Z,63.37
2017-11-12T21:10:39.651Z,63.57
2017-11-12T21:13:05.900Z,63.23
2017-11-12T21:15:32.178Z,60.10
2017-11-12T21:17:58.392Z,81.50
2017-11-12T21:20:24.808Z,53.17
2017-11-12T21:22:51.080Z,70.30
2017-11-12T21:25:17.291Z,79.00
2017-11-12T21:27:43.507Z,51.53
2017-11-12T21:30:09.764Z,62.37
2017-11-12T21:32:35.984Z,57.00
2017-11-12T21:35:02.194Z,70.10
2017-11-12T21:37:28.448Z,57.33
2017-11-12T21:39:54.782Z,47.60
2017-11-12T21:42:20.997Z,47.47
2017-11-12T21:44:47.274Z,41.93
2017-11-12T21:47:13.495Z,57.50
2017-11-12T21:49:39.718Z,43.40
2017-11-12T21:52:06.005Z,50.70
2017-11-12T21:54:32.383Z,53.53
2017-11-12T21:56:58.608Z,40.07
2017-11-12T21:59:24.886Z,31.07
2017-11-12T22:01:52.132Z,38.90
2017-11-12T22:04:18.344Z,39.53
2017-11-12T22:06:44.583Z,25.60
2017-11-12T22:09:10.797Z,33.33
2017-11-12T22:11:37.016Z,31.30
2017-11-12T22:14:03.280Z,43.50
2017-11-12T22:16:29.510Z,42.67
2017-11-12T22:18:55.732Z,38.00
2017-11-12T22:21:22.003Z,28.20
2017-11-12T22:23:48.229Z,32.40
2017-11-12T22:26:14.461Z,25.90
2017-11-12T22:28:40.731Z,42.80
2017-11-12T22:31:06.979Z,39.57
2017-11-12T22:33:33.189Z,38.77
2017-11-12T22:35:59.435Z,33.97
2017-11-12T22:38:25.643Z,25.97
2017-11-12T22:40:51.858Z,21.43
2017-11-12T22:43:18.119Z,31.67
2017-11-12T22:45:44.348Z,35.10
2017-11-12T22:48:10.676Z,30.83
2017-11-12T22:50:37.097Z,32.93
2017-11-12T22:53:03.315Z,34.10
2017-11-12T22:55:29.565Z,33.97
2017-11-12T22:57:55.831Z,31.00
2017-11-12T23:00:22.066Z,31.00
2017-11-12T23:02:48.305Z,37.30
2017-11-12T23:05:14.556Z,30.10
2017-11-12T23:07:40.789Z,29.30
2017-11-12T23:10:07.027Z,30.73
2017-11-12T23:12:33.286Z,33.40
2017-11-12T23:14:59.512Z,41.30
2017-11-12T23:17:25.746Z,35.80
2017-11-12T23:19:52.060Z,29.73
2017-11-12T23:22:18.275Z,25.50
2017-11-12T23:24:44.491Z,26.50
2017-11-12T23:27:10.756Z,27.23
2017-11-12T23:29:37.009Z,30.50
2017-11-12T23:32:03.405Z,30.67
2017-11-12T23:34:29.680Z,28.33
2017-11-12T23:36:55.920Z,21.03
2017-11-12T23:39:22.295Z,17.70
2017-11-12T23:41:48.573Z,22.13
2017-11-12T23:44:14.803Z,30.43
2017-11-12T23:46:41.013Z,24.80
2017-11-12T23:49:07.253Z,22.50
2017-11-12T23:51:33.489Z,29.23
2017-11-12T23:53:59.717Z,24.70
2017-11-12T23:56:26.101Z,21.87
2017-11-12T23:58:52.515Z,20.53
